Time;durP1;ratioP1;P1;durP2;ratioP2;P2;SDS_P1;SDS_P2;PMS_P1;PMS_P2;Temp;Humidity;BMP_temperature;BMP_pressure;BME280_temperature;BME280_humidity;BME280_pressure;Samples;Min_cycle;Max_cycle;Signal;HPM_P1;HPM_P2
2021/07/30 00:00:22;;;;;;;6.37;2.80;;;20.00;63.20;;;;;;5050844;28;20439;-53
2021/07/30 00:02:50;;;;;;;9.33;3.00;;;20.00;63.40;;;;;;5050862;28;20483;-52
2021/07/30 00:05:17;;;;;;;6.00;2.70;;;20.00;63.70;;;;;;5051003;28;20450;-53
2021/07/30 00:07:44;;;;;;;6.90;2.73;;;20.00;63.80;;;;;;5051095;28;20431;-53
2021/07/30 00:10:11;;;;;;;9.37;3.20;;;19.90;64.00;;;;;;5050594;28;21109;-52
2021/07/30 00:12:38;;;;;;;6.57;3.13;;;19.90;64.30;;;;;;5050917;28;20435;-53
2021/07/30 00:15:06;;;;;;;4.30;2.30;;;19.90;64.50;;;;;;5050919;28;20472;-52
2021/07/30 00:17:33;;;;;;;4.60;2.50;;;19.90;64.50;;;;;;5050883;28;20442;-52
2021/07/30 00:20:02;;;;;;;4.17;2.83;;;19.80;64.70;;;;;;5050753;28;20438;-52
2021/07/30 00:22:29;;;;;;;6.83;2.93;;;19.80;64.80;;;;;;5054682;28;20793;-52
2021/07/30 00:24:55;;;;;;;4.90;2.10;;;19.80;64.80;;;;;;5054557;28;20645;-53
2021/07/30 00:27:22;;;;;;;8.80;2.80;;;19.80;64.80;;;;;;5054645;28;20437;-53
2021/07/30 00:29:49;;;;;;;4.83;2.57;;;19.90;65.00;;;;;;5036131;28;20499;-52
2021/07/30 00:32:15;;;;;;;5.80;2.60;;;19.80;64.90;;;;;;5054157;28;20958;-52
2021/07/30 00:34:42;;;;;;;9.63;3.47;;;19.80;65.00;;;;;;5054435;28;20437;-53
2021/07/30 00:37:10;;;;;;;5.23;2.50;;;19.80;65.10;;;;;;5054402;28;20435;-53
2021/07/30 00:39:37;;;;;;;4.33;2.70;;;19.80;65.10;;;;;;5054015;28;21127;-53
2021/07/30 00:42:04;;;;;;;6.07;2.63;;;19.80;65.00;;;;;;5054317;28;20434;-53
2021/07/30 00:44:31;;;;;;;7.23;2.43;;;19.80;64.90;;;;;;5054187;28;20844;-53
2021/07/30 00:46:58;;;;;;;7.90;2.70;;;19.80;65.00;;;;;;5054122;28;20796;-52
2021/07/30 00:49:25;;;;;;;7.20;3.03;;;19.70;65.00;;;;;;5053824;28;20497;-53
2021/07/30 00:51:53;;;;;;;5.47;2.60;;;19.70;65.00;;;;;;5054342;28;20434;-53
2021/07/30 00:54:22;;;;;;;5.03;2.37;;;19.70;64.90;;;;;;5054184;28;21045;-52
2021/07/30 00:56:49;;;;;;;7.40;2.80;;;19.70;65.00;;;;;;5054144;28;20443;-53
2021/07/30 00:59:17;;;;;;;4.70;2.80;;;19.60;64.90;;;;;;5053553;28;20441;-52
2021/07/30 01:01:43;;;;;;;6.97;2.97;;;19.60;65.00;;;;;;5053918;28;20437;-52
2021/07/30 01:04:10;;;;;;;7.30;2.90;;;19.60;65.30;;;;;;5053777;28;20449;-52
2021/07/30 01:06:36;;;;;;;6.50;3.20;;;19.60;65.40;;;;;;5053876;28;20454;-52
2021/07/30 01:09:03;;;;;;;3.30;2.40;;;19.60;65.50;;;;;;5053454;28;20474;-52
2021/07/30 01:11:31;;;;;;;3.13;2.13;;;19.50;65.40;;;;;;5053687;28;20934;-52
2021/07/30 01:13:58;;;;;;;6.10;2.37;;;19.50;65.50;;;;;;5053560;28;20426;-52
2021/07/30 01:16:24;;;;;;;6.93;2.70;;;19.50;65.70;;;;;;5053632;28;21048;-53
2021/07/30 01:18:51;;;;;;;5.03;2.70;;;19.50;65.80;;;;;;5053125;28;20442;-53
2021/07/30 01:21:22;;;;;;;4.30;2.30;;;19.40;65.70;;;;;;5053546;28;20430;-53
2021/07/30 01:23:51;;;;;;;5.03;3.07;;;19.40;65.90;;;;;;5053560;28;20463;-53
2021/07/30 01:30:05;;;;;;;5.07;2.63;;;19.40;66.20;;;;;;5052870;28;20484;-53
2021/07/30 01:32:32;;;;;;;6.40;2.87;;;19.30;66.20;;;;;;5052031;28;20521;-53
2021/07/30 01:35:02;;;;;;;4.63;2.17;;;19.30;66.20;;;;;;5053251;28;20458;-52
2021/07/30 01:37:29;;;;;;;4.50;2.80;;;19.30;66.30;;;;;;5053261;28;20525;-53
2021/07/30 01:39:57;;;;;;;6.13;2.47;;;19.20;66.30;;;;;;5034963;28;20454;-53
2021/07/30 01:42:24;;;;;;;4.83;2.33;;;19.20;66.40;;;;;;5053072;28;20429;-53
2021/07/30 01:44:51;;;;;;;9.73;3.53;;;19.20;66.60;;;;;;5053043;28;20758;-52
2021/07/30 01:47:19;;;;;;;7.90;3.53;;;19.20;66.70;;;;;;5052893;28;20463;-53
2021/07/30 01:49:46;;;;;;;4.30;2.53;;;19.20;66.80;;;;;;5052510;28;20477;-53
2021/07/30 01:52:13;;;;;;;5.90;2.80;;;19.10;66.70;;;;;;5053109;28;20438;-52
2021/07/30 01:54:39;;;;;;;6.10;2.77;;;19.20;67.00;;;;;;5052736;28;20926;-56
2021/07/30 01:57:07;;;;;;;4.53;2.23;;;19.10;67.10;;;;;;5052810;28;20438;-53
2021/07/30 01:59:34;;;;;;;5.90;2.90;;;19.10;67.40;;;;;;5052408;28;20926;-52
2021/07/30 02:02:01;;;;;;;3.20;2.10;;;19.00;67.60;;;;;;5052184;28;20425;-52
2021/07/30 02:04:27;;;;;;;8.63;3.03;;;19.00;67.80;;;;;;5033637;28;20477;-53
2021/07/30 02:06:54;;;;;;;9.07;2.27;;;19.00;68.20;;;;;;5052534;28;20443;-53
2021/07/30 02:09:21;;;;;;;5.40;2.40;;;18.90;68.10;;;;;;5052264;28;20476;-53
2021/07/30 02:11:51;;;;;;;8.23;2.90;;;18.90;68.30;;;;;;5052502;28;20488;-53
2021/07/30 02:14:18;;;;;;;4.20;2.10;;;18.90;68.50;;;;;;5052663;28;20495;-52
2021/07/30 02:16:46;;;;;;;3.80;2.43;;;18.90;68.50;;;;;;5034579;28;20465;-52
2021/07/30 02:19:13;;;;;;;4.43;2.50;;;18.90;68.50;;;;;;5052149;28;20440;-53
2021/07/30 02:21:40;;;;;;;4.57;2.43;;;18.90;68.60;;;;;;5052483;28;20425;-53
2021/07/30 02:24:08;;;;;;;7.20;2.70;;;18.80;68.80;;;;;;5052383;28;20922;-53
2021/07/30 02:26:35;;;;;;;5.83;2.60;;;18.80;68.90;;;;;;5052268;28;20453;-52
2021/07/30 02:29:02;;;;;;;10.43;2.83;;;18.80;69.00;;;;;;5052051;28;20522;-53
2021/07/30 02:31:30;;;;;;;5.90;2.70;;;18.80;69.00;;;;;;5052220;28;20433;-52
2021/07/30 02:33:57;;;;;;;4.97;2.73;;;18.80;69.00;;;;;;5052201;28;20437;-52
2021/07/30 02:36:24;;;;;;;6.30;3.13;;;18.80;69.10;;;;;;5034221;28;20947;-53
2021/07/30 02:38:51;;;;;;;4.60;2.70;;;18.70;69.00;;;;;;5051852;28;20432;-53
2021/07/30 02:41:18;;;;;;;3.03;2.50;;;18.70;69.20;;;;;;5052004;28;20942;-52
2021/07/30 02:43:45;;;;;;;3.50;2.53;;;18.70;69.30;;;;;;5052271;28;20804;-53
2021/07/30 02:46:14;;;;;;;5.47;3.43;;;18.70;69.50;;;;;;5052015;28;20458;-53
2021/07/30 02:48:42;;;;;;;8.40;2.67;;;18.70;69.70;;;;;;5051679;28;20432;-53
2021/07/30 02:51:09;;;;;;;3.60;2.53;;;18.70;69.90;;;;;;5052134;28;20493;-52
2021/07/30 02:53:35;;;;;;;6.27;2.83;;;18.70;69.80;;;;;;5051992;28;20956;-53
2021/07/30 02:56:02;;;;;;;4.53;2.80;;;18.70;69.90;;;;;;5051583;28;20473;-52
2021/07/30 02:58:30;;;;;;;5.97;3.20;;;18.60;69.90;;;;;;5051706;28;20833;-53
2021/07/30 03:00:58;;;;;;;4.67;2.97;;;18.60;70.20;;;;;;5051752;28;20467;-53
2021/07/30 03:03:24;;;;;;;7.10;3.47;;;18.60;70.30;;;;;;5051723;28;20467;-53
2021/07/30 03:05:52;;;;;;;6.13;3.47;;;18.50;70.30;;;;;;5051749;28;20456;-53
2021/07/30 03:08:21;;;;;;;4.33;2.83;;;18.60;70.80;;;;;;5051208;28;20438;-52
2021/07/30 03:10:47;;;;;;;8.47;3.10;;;18.50;70.70;;;;;;5051451;28;20924;-52
2021/07/30 03:13:14;;;;;;;5.13;3.00;;;18.50;70.80;;;;;;5051592;28;20806;-52
2021/07/30 03:15:40;;;;;;;7.10;2.87;;;18.50;71.10;;;;;;5051442;28;20452;-52
2021/07/30 03:18:07;;;;;;;10.13;3.83;;;18.50;71.40;;;;;;5051059;28;20447;-53
2021/07/30 03:20:34;;;;;;;4.50;2.67;;;18.40;71.40;;;;;;5051416;28;20425;-53
2021/07/30 03:23:02;;;;;;;4.37;3.60;;;18.50;71.60;;;;;;5051561;28;20440;-53
2021/07/30 03:25:28;;;;;;;5.30;3.10;;;18.50;71.70;;;;;;5051682;28;20670;-53
2021/07/30 03:27:55;;;;;;;9.20;2.80;;;18.50;71.70;;;;;;5051542;28;20426;-53
2021/07/30 03:30:22;;;;;;;11.50;3.03;;;18.50;71.90;;;;;;5051210;28;20555;-53
2021/07/30 03:32:48;;;;;;;6.90;3.10;;;18.50;72.10;;;;;;5051495;28;20428;-53
2021/07/30 03:35:15;;;;;;;7.70;3.83;;;18.50;71.90;;;;;;5051168;28;20462;-52
2021/07/30 03:37:41;;;;;;;5.30;3.17;;;18.50;72.20;;;;;;5051537;28;20432;-52
2021/07/30 03:40:10;;;;;;;5.97;2.93;;;18.60;72.30;;;;;;5050747;28;20444;-52
2021/07/30 03:42:37;;;;;;;4.13;2.73;;;18.50;72.40;;;;;;5051167;28;20425;-52
2021/07/30 03:45:04;;;;;;;7.17;2.90;;;18.50;72.40;;;;;;5051206;28;20464;-52
2021/07/30 03:47:31;;;;;;;8.20;2.93;;;18.60;72.80;;;;;;5051200;28;20432;-53
2021/07/30 03:49:57;;;;;;;7.87;2.83;;;18.60;72.70;;;;;;5050579;28;21001;-55
2021/07/30 03:52:24;;;;;;;4.90;2.53;;;18.60;72.70;;;;;;5051163;28;20441;-52
2021/07/30 03:54:51;;;;;;;5.87;3.30;;;18.80;72.90;;;;;;5050884;28;20473;-53
2021/07/30 03:57:18;;;;;;;4.87;3.03;;;18.70;72.90;;;;;;5054936;28;20427;-53
2021/07/30 03:59:45;;;;;;;5.20;3.07;;;18.70;72.80;;;;;;5055002;28;20452;-53
2021/07/30 04:02:12;;;;;;;4.37;2.80;;;18.70;73.00;;;;;;5054974;28;20567;-53
2021/07/30 04:04:39;;;;;;;7.07;3.43;;;18.70;73.10;;;;;;5054836;28;20635;-53
2021/07/30 04:07:06;;;;;;;7.23;3.40;;;18.60;73.10;;;;;;5054882;28;20433;-53
2021/07/30 04:09:33;;;;;;;5.67;3.40;;;18.70;73.40;;;;;;5054512;28;20772;-52
2021/07/30 04:15:48;;;;;;;18.97;3.20;;;18.60;73.60;;;;;;5054733;28;20438;-52
2021/07/30 04:18:14;;;;;;;4.50;3.10;;;18.60;73.60;;;;;;5036362;28;20450;-53
2021/07/30 04:20:41;;;;;;;7.77;2.83;;;18.60;73.80;;;;;;5054482;28;20945;-52
2021/07/30 04:23:08;;;;;;;11.10;3.53;;;18.60;73.90;;;;;;5054478;28;20437;-53
2021/07/30 04:25:39;;;;;;;9.13;3.47;;;18.60;73.80;;;;;;5054667;28;20455;-53
2021/07/30 04:28:05;;;;;;;5.07;3.03;;;18.70;73.90;;;;;;5053931;28;20925;-52
2021/07/30 04:30:32;;;;;;;4.83;3.73;;;18.50;73.70;;;;;;5054487;28;20495;-52
2021/07/30 04:33:00;;;;;;;11.70;4.47;;;18.50;73.60;;;;;;5054466;28;20438;-53
2021/07/30 04:35:27;;;;;;;9.30;4.00;;;18.90;73.80;;;;;;5054195;28;20469;-53
2021/07/30 04:37:56;;;;;;;5.53;3.53;;;19.00;73.90;;;;;;5054120;28;20429;-53
2021/07/30 04:40:22;;;;;;;8.73;4.00;;;19.10;73.50;;;;;;5053820;28;20429;-53
2021/07/30 04:42:49;;;;;;;7.33;3.40;;;19.20;73.20;;;;;;5054156;28;20951;-53
2021/07/30 04:45:16;;;;;;;8.63;3.90;;;19.30;73.20;;;;;;5053981;28;20453;-53
2021/07/30 04:47:42;;;;;;;6.83;3.67;;;19.30;73.00;;;;;;5054400;28;20441;-53
2021/07/30 04:50:11;;;;;;;8.90;3.63;;;19.20;72.80;;;;;;5053721;28;20477;-53
2021/07/30 04:52:37;;;;;;;4.10;3.07;;;19.50;72.90;;;;;;5054159;28;20453;-53
2021/07/30 04:55:04;;;;;;;10.17;3.73;;;19.40;72.70;;;;;;5079951;22;20582;-51
2021/07/30 04:57:31;;;;;;;9.17;4.30;;;19.60;72.60;;;;;;5073803;28;20451;-51
2021/07/30 04:59:57;;;;;;;6.17;3.67;;;19.70;72.40;;;;;;5073627;28;20433;-51
2021/07/30 05:02:24;;;;;;;7.73;3.33;;;19.70;72.30;;;;;;5073825;28;20439;-49
2021/07/30 05:04:53;;;;;;;5.00;3.60;;;19.90;72.20;;;;;;5073635;28;20433;-51
2021/07/30 05:07:21;;;;;;;7.03;3.43;;;19.90;71.90;;;;;;5073717;28;20433;-51
2021/07/30 05:09:48;;;;;;;7.10;3.57;;;20.00;71.80;;;;;;5073821;28;20446;-51
2021/07/30 05:12:15;;;;;;;9.63;4.00;;;20.10;71.70;;;;;;5073877;28;20477;-50
2021/07/30 05:14:41;;;;;;;8.70;3.50;;;20.20;71.60;;;;;;5073565;28;20427;-51
2021/07/30 05:17:08;;;;;;;7.83;4.67;;;20.30;71.40;;;;;;5073105;28;20465;-50
2021/07/30 05:19:35;;;;;;;9.30;3.67;;;20.20;71.10;;;;;;5073144;28;20439;-50
2021/07/30 05:22:01;;;;;;;7.87;4.00;;;20.40;71.10;;;;;;5074144;28;20914;-50
2021/07/30 05:24:29;;;;;;;5.17;3.60;;;20.50;71.00;;;;;;5073830;28;20433;-50
2021/07/30 05:26:56;;;;;;;5.77;3.23;;;20.50;70.70;;;;;;5073011;28;20550;-51
2021/07/30 05:29:22;;;;;;;7.17;3.33;;;20.30;70.30;;;;;;5072403;28;20436;-50
2021/07/30 05:31:49;;;;;;;7.33;3.67;;;20.60;70.30;;;;;;5072471;28;21010;-50
2021/07/30 05:34:16;;;;;;;9.53;3.10;;;20.70;70.30;;;;;;5073289;28;20422;-50
2021/07/30 05:36:43;;;;;;;5.40;3.33;;;20.70;70.20;;;;;;5073093;28;20464;-50
2021/07/30 05:39:09;;;;;;;6.80;3.90;;;20.80;70.00;;;;;;5072439;28;20433;-50
2021/07/30 05:41:37;;;;;;;8.37;3.77;;;20.90;69.90;;;;;;5072735;28;20742;-51
2021/07/30 05:44:04;;;;;;;6.90;4.07;;;20.70;69.40;;;;;;5072593;28;20428;-51
2021/07/30 05:46:31;;;;;;;7.27;3.57;;;21.00;69.60;;;;;;5072241;28;20454;-49
2021/07/30 05:49:00;;;;;;;6.30;3.10;;;21.10;69.40;;;;;;5072207;28;20843;-50
2021/07/30 05:51:26;;;;;;;6.57;3.20;;;21.10;69.40;;;;;;5072295;28;20664;-51
2021/07/30 05:53:53;;;;;;;10.33;4.40;;;21.20;69.30;;;;;;5072406;28;20427;-51
2021/07/30 05:56:20;;;;;;;16.00;8.60;;;21.20;69.10;;;;;;5072183;28;20481;-51
2021/07/30 05:58:48;;;;;;;7.67;4.10;;;21.30;69.10;;;;;;5072211;28;20522;-51
2021/07/30 06:01:14;;;;;;;7.80;4.10;;;21.30;68.90;;;;;;5072197;28;20428;-50
2021/07/30 06:03:41;;;;;;;6.07;3.33;;;21.30;69.10;;;;;;5072167;28;20529;-50
2021/07/30 06:06:08;;;;;;;6.77;3.50;;;21.40;69.30;;;;;;5072023;28;20976;-51
2021/07/30 06:08:34;;;;;;;8.10;4.10;;;21.50;69.30;;;;;;5071799;28;20427;-50
2021/07/30 06:11:01;;;;;;;8.23;3.37;;;21.50;69.00;;;;;;5053830;28;20979;-51
2021/07/30 06:13:27;;;;;;;3.53;2.33;;;21.50;68.60;;;;;;5071933;28;20434;-51
2021/07/30 06:15:55;;;;;;;7.90;3.93;;;21.70;68.70;;;;;;5071580;28;20455;-51
2021/07/30 06:18:22;;;;;;;7.50;3.77;;;21.80;68.80;;;;;;5071295;28;20430;-52
2021/07/30 06:20:49;;;;;;;8.10;3.20;;;21.90;68.80;;;;;;5071793;28;20431;-52
2021/07/30 06:23:16;;;;;;;7.10;3.10;;;21.90;68.80;;;;;;5071340;28;20431;-51
2021/07/30 06:25:43;;;;;;;5.57;3.30;;;21.80;68.50;;;;;;5071940;28;20466;-51
2021/07/30 06:28:09;;;;;;;4.80;3.27;;;22.00;68.70;;;;;;5071229;28;20434;-51
2021/07/30 06:30:36;;;;;;;7.20;3.87;;;22.10;68.70;;;;;;5071846;28;20440;-51
2021/07/30 06:33:10;;;;;;;13.33;3.43;;;22.10;68.60;;;;;;5071248;28;20435;-50
2021/07/30 06:35:36;;;;;;;7.70;3.83;;;22.20;68.80;;;;;;5071083;28;20556;-50
2021/07/30 06:38:03;;;;;;;9.30;3.90;;;22.20;68.80;;;;;;5071099;28;20463;-51
2021/07/30 06:40:30;;;;;;;8.03;2.97;;;22.20;68.60;;;;;;5071374;28;20432;-50
2021/07/30 06:42:58;;;;;;;7.20;3.33;;;22.30;68.50;;;;;;5071185;28;20953;-49
2021/07/30 06:45:25;;;;;;;11.10;3.27;;;22.20;68.40;;;;;;5071010;28;20461;-50
2021/07/30 06:47:52;;;;;;;11.50;3.70;;;22.20;68.40;;;;;;5071471;28;20440;-51
2021/07/30 06:50:20;;;;;;;7.53;3.73;;;22.40;68.60;;;;;;5070800;28;20444;-51
2021/07/30 06:52:46;;;;;;;9.00;4.20;;;22.40;68.60;;;;;;5071214;28;20909;-49
2021/07/30 06:55:13;;;;;;;8.70;3.60;;;22.40;68.70;;;;;;5070880;28;20570;-50
2021/07/30 06:57:39;;;;;;;6.13;3.50;;;22.40;68.50;;;;;;5070127;28;20451;-51
2021/07/30 07:00:07;;;;;;;7.20;3.20;;;22.40;68.40;;;;;;5070505;28;20519;-51
2021/07/30 07:02:34;;;;;;;6.77;3.53;;;22.40;68.40;;;;;;5070724;28;20433;-50
2021/07/30 07:05:00;;;;;;;5.10;3.10;;;22.40;68.70;;;;;;5070721;28;20784;-50
2021/07/30 07:07:31;;;;;;;11.47;3.90;;;22.30;68.80;;;;;;5070939;28;20443;-52
2021/07/30 07:09:57;;;;;;;8.80;3.70;;;22.50;68.70;;;;;;5070520;28;20518;-50
2021/07/30 07:12:24;;;;;;;10.10;3.77;;;22.50;68.60;;;;;;5052875;28;20469;-50
2021/07/30 07:14:51;;;;;;;6.37;3.83;;;22.30;68.30;;;;;;5070930;28;20469;-50
2021/07/30 07:17:18;;;;;;;10.17;4.00;;;22.60;68.80;;;;;;5052915;28;20457;-50
2021/07/30 07:19:45;;;;;;;9.77;3.67;;;22.60;69.20;;;;;;5070808;28;20858;-50
2021/07/30 07:22:12;;;;;;;7.30;3.43;;;22.60;69.00;;;;;;5071056;28;20437;-50
2021/07/30 07:24:40;;;;;;;5.97;3.90;;;22.60;68.40;;;;;;5070742;28;20896;-51
2021/07/30 07:27:07;;;;;;;6.10;3.30;;;22.70;67.90;;;;;;5070834;28;20858;-50
2021/07/30 07:29:34;;;;;;;5.87;3.87;;;22.70;67.40;;;;;;5070988;28;20440;-51
2021/07/30 07:32:00;;;;;;;6.33;4.70;;;22.70;67.30;;;;;;5074201;28;20487;-51
2021/07/30 07:34:27;;;;;;;7.93;3.70;;;22.70;67.30;;;;;;5075058;28;20433;-51
2021/07/30 07:36:54;;;;;;;13.03;4.80;;;22.70;67.50;;;;;;5075507;28;20461;-50
2021/07/30 07:39:21;;;;;;;7.53;3.90;;;22.80;67.50;;;;;;5074911;28;20451;-51
2021/07/30 07:41:49;;;;;;;9.70;3.80;;;22.70;67.20;;;;;;5074822;28;20942;-51
2021/07/30 07:44:16;;;;;;;12.90;4.07;;;22.80;67.30;;;;;;5074954;28;20437;-50
2021/07/30 07:46:43;;;;;;;11.50;3.70;;;22.60;67.10;;;;;;5074549;28;20466;-50
2021/07/30 07:49:25;;;;;;;8.07;4.00;;;22.80;66.80;;;;;;5074269;28;20434;-50
2021/07/30 07:51:52;;;;;;;8.57;4.27;;;22.80;65.90;;;;;;5074509;28;20477;-50
2021/07/30 07:54:19;;;;;;;13.80;4.23;;;22.90;66.10;;;;;;5074579;28;20805;-51
2021/07/30 07:56:45;;;;;;;6.30;3.60;;;22.90;65.90;;;;;;5074224;28;20843;-51
2021/07/30 07:59:13;;;;;;;11.30;3.73;;;22.90;65.70;;;;;;5074178;28;20432;-52
2021/07/30 08:01:40;;;;;;;9.50;4.80;;;23.00;65.50;;;;;;5074115;28;20513;-51
2021/07/30 08:04:06;;;;;;;12.63;3.90;;;23.00;65.20;;;;;;5074454;28;20444;-51
2021/07/30 08:06:33;;;;;;;5.57;4.50;;;23.00;64.90;;;;;;5074290;28;20539;-51
2021/07/30 08:09:00;;;;;;;10.13;4.30;;;23.00;64.90;;;;;;5073942;28;20566;-51
2021/07/30 08:11:26;;;;;;;7.13;3.87;;;23.00;64.50;;;;;;5074294;28;20859;-52
2021/07/30 08:13:53;;;;;;;8.33;3.80;;;23.00;64.30;;;;;;5074489;28;20983;-51
2021/07/30 08:16:26;;;;;;;9.93;4.63;;;23.10;64.40;;;;;;5073915;28;20829;-51
2021/07/30 08:18:53;;;;;;;7.60;4.07;;;23.10;64.00;;;;;;5055934;28;20513;-51
2021/07/30 08:21:20;;;;;;;33.27;13.83;;;23.10;64.20;;;;;;5074065;28;20764;-51
2021/07/30 08:23:46;;;;;;;9.70;4.77;;;23.20;63.40;;;;;;5073845;28;20445;-51
2021/07/30 08:26:13;;;;;;;9.00;4.27;;;23.20;63.20;;;;;;5073803;28;21004;-52
2021/07/30 08:28:39;;;;;;;7.53;4.07;;;23.30;63.40;;;;;;5073476;28;20442;-51
2021/07/30 08:31:06;;;;;;;11.20;4.80;;;23.40;63.20;;;;;;5073870;28;20450;-51
2021/07/30 08:33:35;;;;;;;6.53;4.20;;;23.40;62.50;;;;;;5073672;28;20439;-51
2021/07/30 08:36:02;;;;;;;8.07;3.60;;;23.50;62.80;;;;;;5073757;28;20457;-51
2021/07/30 08:38:28;;;;;;;11.77;4.53;;;23.50;62.70;;;;;;5073516;28;20431;-51
2021/07/30 08:40:56;;;;;;;8.07;4.67;;;23.60;63.00;;;;;;5074372;28;20432;-52
2021/07/30 08:43:22;;;;;;;10.43;4.20;;;23.60;62.70;;;;;;5074749;28;20463;-51
2021/07/30 08:45:50;;;;;;;7.13;4.23;;;23.60;62.40;;;;;;5073466;28;20851;-50
2021/07/30 08:48:17;;;;;;;8.50;4.17;;;23.70;62.70;;;;;;5054776;28;20765;-51
2021/07/30 08:50:46;;;;;;;9.10;4.30;;;23.70;62.50;;;;;;5073304;28;20431;-50
2021/07/30 08:53:22;;;;;;;10.03;4.03;;;23.80;62.60;;;;;;5073398;28;20475;-51
2021/07/30 08:55:48;;;;;;;8.53;3.97;;;23.90;62.10;;;;;;5072966;28;20836;-50
2021/07/30 08:58:15;;;;;;;7.10;3.97;;;23.90;61.50;;;;;;5054556;28;20462;-51
2021/07/30 09:00:42;;;;;;;5.70;3.50;;;24.00;60.80;;;;;;5073038;28;20522;-51
2021/07/30 09:03:09;;;;;;;11.90;8.30;;;24.10;60.80;;;;;;5073168;28;20865;-50
2021/07/30 09:05:36;;;;;;;9.40;3.93;;;24.10;61.00;;;;;;5072793;28;20476;-50
2021/07/30 09:08:06;;;;;;;6.97;4.13;;;24.10;60.40;;;;;;5072866;28;20828;-52
2021/07/30 09:10:35;;;;;;;8.90;4.07;;;24.10;59.50;;;;;;5073110;28;20425;-51
2021/07/30 09:13:20;;;;;;;5.33;3.67;;;24.10;59.50;;;;;;5072974;28;20473;-51
2021/07/30 09:15:48;;;;;;;8.47;3.97;;;24.20;58.90;;;;;;5073354;28;20452;-52
2021/07/30 09:18:25;;;;;;;5.37;3.00;;;24.20;58.80;;;;;;5072660;28;20467;-52
2021/07/30 09:20:52;;;;;;;5.90;3.60;;;24.30;58.40;;;;;;5072678;28;20750;-51
2021/07/30 09:23:20;;;;;;;7.80;3.70;;;24.30;58.50;;;;;;5072839;28;20433;-51
2021/07/30 09:25:47;;;;;;;6.00;3.47;;;24.30;58.20;;;;;;5073011;28;20965;-51
2021/07/30 09:28:14;;;;;;;8.40;3.87;;;24.40;58.30;;;;;;5072839;28;20635;-52
2021/07/30 09:30:40;;;;;;;8.83;3.67;;;24.50;58.20;;;;;;5073002;28;20819;-51
2021/07/30 09:33:07;;;;;;;7.03;4.40;;;24.60;58.00;;;;;;5072200;28;20498;-52
2021/07/30 09:35:56;;;;;;;6.70;3.40;;;24.60;57.60;;;;;;5072625;28;20524;-51
2021/07/30 09:38:24;;;;;;;7.93;3.77;;;24.70;56.60;;;;;;5072467;28;20432;-51
2021/07/30 09:41:10;;;;;;;10.77;4.03;;;24.70;56.60;;;;;;5072405;28;20438;-52
2021/07/30 09:43:38;;;;;;;6.53;3.50;;;24.80;56.50;;;;;;5072445;28;20483;-51
2021/07/30 09:46:13;;;;;;;6.23;3.57;;;24.90;56.60;;;;;;5072348;28;20555;-51
2021/07/30 09:48:51;;;;;;;9.23;3.50;;;25.00;56.70;;;;;;5072165;28;20539;-52
2021/07/30 09:51:18;;;;;;;6.03;3.37;;;25.10;56.80;;;;;;5054547;28;20468;-52
2021/07/30 09:53:47;;;;;;;5.57;3.33;;;25.20;57.10;;;;;;5071778;28;20488;-52
2021/07/30 09:56:15;;;;;;;3.67;3.00;;;25.30;56.90;;;;;;5071947;28;20564;-51
2021/07/30 09:58:45;;;;;;;10.07;4.17;;;25.40;56.60;;;;;;5071528;28;20802;-51
2021/07/30 10:01:18;;;;;;;10.43;4.00;;;25.50;56.40;;;;;;5072507;28;20429;-52
2021/07/30 10:03:46;;;;;;;6.30;3.07;;;25.50;56.20;;;;;;5071982;28;20529;-52
2021/07/30 10:06:14;;;;;;;12.43;5.10;;;25.70;56.10;;;;;;5071932;28;21003;-52
2021/07/30 10:08:42;;;;;;;7.53;3.30;;;25.60;56.20;;;;;;5071335;28;20445;-51
2021/07/30 10:11:12;;;;;;;6.73;3.80;;;25.60;56.00;;;;;;5071683;28;20953;-51
2021/07/30 10:13:48;;;;;;;8.50;4.43;;;25.70;55.70;;;;;;5071667;28;20477;-52
2021/07/30 10:16:19;;;;;;;4.90;3.40;;;25.70;55.50;;;;;;5071558;28;20457;-52
2021/07/30 10:18:47;;;;;;;7.33;3.10;;;25.80;55.50;;;;;;5071486;28;20440;-52
2021/07/30 10:21:16;;;;;;;12.90;4.03;;;25.80;55.40;;;;;;5071415;28;21007;-51
2021/07/30 10:23:48;;;;;;;5.27;3.10;;;25.70;55.30;;;;;;5071318;28;20434;-52
2021/07/30 10:26:17;;;;;;;5.87;3.40;;;25.70;55.10;;;;;;5071070;28;20484;-52
2021/07/30 10:28:44;;;;;;;10.60;3.70;;;25.70;54.90;;;;;;5070819;28;20447;-52
2021/07/30 10:31:12;;;;;;;5.97;3.80;;;25.80;55.10;;;;;;5071314;28;20430;-51
2021/07/30 10:33:49;;;;;;;7.20;3.10;;;25.80;55.20;;;;;;5071092;28;20492;-51
2021/07/30 10:36:37;;;;;;;7.60;3.40;;;25.90;55.00;;;;;;5071213;28;20485;-52
2021/07/30 10:39:15;;;;;;;6.20;3.50;;;25.90;54.90;;;;;;5070692;28;21017;-51
2021/07/30 10:42:13;;;;;;;6.23;3.30;;;25.90;54.70;;;;;;5071442;28;20466;-52
2021/07/30 10:45:17;;;;;;;7.57;4.13;;;25.90;54.40;;;;;;5070691;28;20797;-51
2021/07/30 10:47:44;;;;;;;5.90;3.90;;;25.70;54.40;;;;;;5070810;28;20441;-51
2021/07/30 10:50:44;;;;;;;7.33;3.10;;;25.70;54.60;;;;;;5070746;28;20432;-51
2021/07/30 10:53:42;;;;;;;10.23;3.03;;;25.60;54.20;;;;;;5071187;28;20900;-51
2021/07/30 10:56:47;;;;;;;7.93;4.90;;;25.60;54.50;;;;;;5077800;22;21033;-54
2021/07/30 10:59:17;;;;;;;7.03;4.00;;;25.70;54.50;;;;;;5032614;28;20446;-53
2021/07/30 11:02:00;;;;;;;9.73;3.20;;;25.60;54.40;;;;;;5051146;28;20430;-53
2021/07/30 11:04:28;;;;;;;5.23;2.70;;;25.70;54.00;;;;;;5050977;28;20500;-53
2021/07/30 11:06:56;;;;;;;8.00;3.10;;;25.70;53.90;;;;;;5050998;28;20459;-53
2021/07/30 11:09:40;;;;;;;8.70;3.30;;;25.80;54.00;;;;;;5050660;28;20443;-54
2021/07/30 11:12:13;;;;;;;8.90;3.77;;;25.90;53.70;;;;;;5050941;28;20438;-54
2021/07/30 11:14:45;;;;;;;8.33;3.00;;;26.00;53.90;;;;;;5051145;28;20431;-54
2021/07/30 11:17:13;;;;;;;5.33;2.53;;;26.00;53.70;;;;;;5050989;28;20865;-54
2021/07/30 11:19:41;;;;;;;14.07;3.77;;;26.00;53.40;;;;;;5050792;28;20533;-54
2021/07/30 11:22:09;;;;;;;7.47;3.30;;;26.10;53.40;;;;;;5050668;28;20438;-54
2021/07/30 11:24:41;;;;;;;7.17;3.47;;;26.20;53.10;;;;;;5050609;28;20528;-54
2021/07/30 11:27:09;;;;;;;7.90;3.77;;;26.20;53.10;;;;;;5050118;28;20776;-54
2021/07/30 11:29:36;;;;;;;10.23;4.07;;;26.30;53.50;;;;;;5050394;28;20426;-54
2021/07/30 11:32:06;;;;;;;4.63;2.80;;;26.30;53.60;;;;;;5050821;28;20430;-54
2021/07/30 11:34:34;;;;;;;8.53;3.50;;;26.30;53.60;;;;;;5050999;28;20458;-54
2021/07/30 11:37:02;;;;;;;8.57;4.50;;;26.30;53.40;;;;;;5050698;28;21067;-54
2021/07/30 11:39:35;;;;;;;4.93;2.63;;;26.20;53.30;;;;;;5050323;28;20910;-53
2021/07/30 11:42:02;;;;;;;8.20;3.00;;;26.20;53.50;;;;;;5050601;28;20434;-54
2021/07/30 11:44:29;;;;;;;11.47;3.33;;;26.10;53.60;;;;;;5050401;28;20530;-57
2021/07/30 11:46:58;;;;;;;7.27;2.93;;;26.10;53.60;;;;;;5050692;28;20955;-53
2021/07/30 11:49:30;;;;;;;7.60;3.40;;;26.10;53.60;;;;;;5050255;28;20434;-54
2021/07/30 11:51:58;;;;;;;7.00;3.30;;;26.00;53.80;;;;;;5032335;28;20962;-54
2021/07/30 11:54:26;;;;;;;5.47;3.50;;;25.90;54.00;;;;;;5050190;28;20474;-54
2021/07/30 11:56:53;;;;;;;8.40;3.43;;;25.90;54.00;;;;;;5049958;28;20553;-54
2021/07/30 11:59:20;;;;;;;8.90;3.40;;;25.80;54.10;;;;;;5050464;28;20793;-55
2021/07/30 12:02:03;;;;;;;7.17;4.17;;;25.90;54.20;;;;;;5050114;28;20429;-54
2021/07/30 12:04:32;;;;;;;7.07;2.60;;;26.00;54.10;;;;;;5050689;28;20438;-54
2021/07/30 12:07:03;;;;;;;7.57;3.50;;;26.00;54.20;;;;;;5050183;28;20446;-53
2021/07/30 12:09:32;;;;;;;10.90;3.00;;;26.00;54.30;;;;;;5050592;28;20468;-53
2021/07/30 12:12:02;;;;;;;4.93;2.90;;;26.00;54.30;;;;;;5050548;28;20439;-53
2021/07/30 12:14:30;;;;;;;9.33;3.10;;;26.10;54.40;;;;;;5032822;28;20485;-53
2021/07/30 12:16:57;;;;;;;5.60;3.37;;;26.10;54.20;;;;;;5052045;28;20514;-53
2021/07/30 12:19:28;;;;;;;6.50;3.60;;;26.10;54.20;;;;;;5053798;28;20438;-52
2021/07/30 12:21:57;;;;;;;7.63;3.67;;;26.10;54.30;;;;;;5054555;28;20450;-53
2021/07/30 12:24:24;;;;;;;6.77;3.13;;;26.10;54.20;;;;;;5054674;28;20441;-53
2021/07/30 12:26:51;;;;;;;7.97;3.40;;;26.10;54.40;;;;;;5054396;28;20449;-54
2021/07/30 12:29:37;;;;;;;4.20;2.47;;;26.20;54.40;;;;;;5053689;28;20453;-55
2021/07/30 12:32:18;;;;;;;8.20;3.40;;;26.40;54.40;;;;;;5053713;28;20445;-54
2021/07/30 12:34:58;;;;;;;9.60;3.43;;;26.50;54.00;;;;;;5053739;28;20438;-55
2021/07/30 12:37:27;;;;;;;6.53;3.13;;;26.50;53.90;;;;;;5053848;28;20546;-55
2021/07/30 12:39:56;;;;;;;7.63;3.37;;;26.60;53.90;;;;;;5053379;28;20805;-54
2021/07/30 12:42:24;;;;;;;9.83;3.57;;;26.70;54.00;;;;;;5053651;28;20909;-54
2021/07/30 12:45:08;;;;;;;7.97;3.40;;;26.80;54.10;;;;;;5053639;28;20443;-54
2021/07/30 12:47:39;;;;;;;7.10;3.23;;;26.80;53.80;;;;;;5035224;28;20453;-54
2021/07/30 12:50:29;;;;;;;7.27;3.30;;;26.80;53.70;;;;;;5053208;28;20439;-54
2021/07/30 12:53:13;;;;;;;8.20;2.80;;;26.90;53.80;;;;;;5053341;28;20467;-56
2021/07/30 12:56:00;;;;;;;6.70;3.30;;;27.00;53.50;;;;;;5053702;28;20466;-54
2021/07/30 12:58:28;;;;;;;7.13;3.73;;;27.00;53.30;;;;;;5052887;28;20438;-53
2021/07/30 13:00:55;;;;;;;5.50;3.23;;;27.00;53.30;;;;;;5035238;28;20447;-53